Sherbrooke Airport Sherbrooke CA
ICAO: CYSC
IATA: YSC
Category: Medium
Scheduled Services: No

Elevation: 792 ft
TransAlt. 7900 ft.

Airport Communications:
MF:123.5
AWOS:126.25
MONTREAL CNTR:132.55
ATF/UNICOM:123.5

CYSC Zoom In..

If you have problems with the map follow the link
https://www.worldairports.se/pages/airport.php?
ICAO=CYSC

Runways:

(A) RW 13 length 5901 ft width 150 ft
---- / hdg 136

(B) RW 31 length 5901 ft width 150 ft
---- / hdg 316

Location; CYSC
Day. 18 / Time. 22.00 Zulu
* Altimeter: 29.91
* Temperature: -04° c. -24.8°f.
* Wind from: 240° Speed 08 kn.
Dewpoint: -05° c.
Visibility: 4 Statute Miles.
Clouds: Broken 1900 ft.
Clouds: Overcast 2600 ft.
Conditions: Light Snow.

CYSC 182200Z AUTO 24008KT 4SM -SN BKN019 OVC026 M04/M05 A2991 RMK SLP146


Wind From 240°
Speed 08 kn.

 
 
jpsmedia.com for Web Design worldairports.se 2019   terms of use